createdAt,value
2023-04-18T00:00:26.934Z,7.20
2023-04-18T00:09:33.267Z,7.14
2023-04-18T00:11:59.806Z,7.15
2023-04-18T00:14:26.130Z,7.18
2023-04-18T00:16:54.090Z,7.18
2023-04-18T00:19:20.454Z,7.17
2023-04-18T00:21:46.937Z,7.17
2023-04-18T00:24:13.668Z,7.15
2023-04-18T00:26:40.239Z,7.13
2023-04-18T00:29:06.666Z,7.10
2023-04-18T00:31:33.039Z,7.18
2023-04-18T00:33:59.396Z,7.11
2023-04-18T00:36:26.929Z,7.12
2023-04-18T00:38:53.368Z,7.11
2023-04-18T00:41:21.667Z,7.07
2023-04-18T00:43:48.034Z,7.13
2023-04-18T00:46:14.486Z,7.16
2023-04-18T00:48:41.269Z,7.10
2023-04-18T00:51:09.760Z,7.16
2023-04-18T00:53:36.667Z,7.16
2023-04-18T00:56:04.326Z,7.16
2023-04-18T00:58:32.286Z,7.18
2023-04-18T01:00:58.589Z,7.20
2023-04-18T01:03:28.225Z,7.22
2023-04-18T01:05:55.376Z,7.23
2023-04-18T01:08:22.067Z,7.26
2023-04-18T01:10:49.456Z,7.28
2023-04-18T01:13:17.854Z,7.30
2023-04-18T01:15:48.666Z,7.31
2023-04-18T01:18:19.031Z,7.20
2023-04-18T01:20:49.699Z,7.20
2023-04-18T01:23:17.564Z,7.22
2023-04-18T01:25:45.310Z,7.24
2023-04-18T01:28:13.554Z,7.25
2023-04-18T01:30:40.745Z,7.28
2023-04-18T01:33:07.187Z,7.25
2023-04-18T01:35:34.257Z,7.27
2023-04-18T01:38:01.086Z,7.31
2023-04-18T01:40:27.545Z,7.21
2023-04-18T01:42:53.957Z,7.28
2023-04-18T01:45:20.406Z,7.30
2023-04-18T01:47:47.187Z,7.27
2023-04-18T01:50:14.277Z,7.24
2023-04-18T01:52:41.294Z,7.17
2023-04-18T01:55:08.224Z,7.10
2023-04-18T01:57:36.657Z,7.05
2023-04-18T02:00:07.611Z,6.99
2023-04-18T02:02:34.187Z,6.87
2023-04-18T02:05:01.070Z,6.76
2023-04-18T02:07:27.640Z,6.71
2023-04-18T02:09:54.046Z,6.68
2023-04-18T02:12:20.976Z,6.69
2023-04-18T02:14:51.608Z,6.64
2023-04-18T02:17:18.433Z,6.62
2023-04-18T02:19:44.820Z,6.58
2023-04-18T02:22:11.141Z,6.55
2023-04-18T02:24:37.505Z,6.47
2023-04-18T02:27:03.839Z,6.45
2023-04-18T02:29:30.581Z,6.42
2023-04-18T02:31:58.211Z,6.31
2023-04-18T02:34:24.506Z,6.25
2023-04-18T02:36:50.885Z,6.19
2023-04-18T02:39:17.244Z,6.07
2023-04-18T02:41:43.622Z,6.08
2023-04-18T02:44:10.197Z,5.99
2023-04-18T02:46:36.538Z,6.07
2023-04-18T02:49:03.372Z,6.05
2023-04-18T02:51:29.711Z,6.06
2023-04-18T02:53:56.130Z,6.04
2023-04-18T02:56:22.497Z,5.96
2023-04-18T02:58:49.113Z,5.90
2023-04-18T03:01:17.883Z,5.86
2023-04-18T03:03:44.356Z,5.79
2023-04-18T03:06:10.713Z,5.65
2023-04-18T03:08:37.057Z,5.57
2023-04-18T03:11:03.434Z,5.46
2023-04-18T03:13:29.734Z,5.42
2023-04-18T03:15:56.272Z,5.32
2023-04-18T03:18:23.938Z,5.21
2023-04-18T03:20:50.398Z,5.20
2023-04-18T03:23:16.730Z,5.21
2023-04-18T03:25:43.211Z,5.09
2023-04-18T03:28:09.603Z,5.07
2023-04-18T03:30:35.978Z,5.02
2023-04-18T03:33:02.706Z,4.95
2023-04-18T03:35:29.309Z,4.91
2023-04-18T03:37:55.716Z,4.85
2023-04-18T03:40:22.332Z,4.80
2023-04-18T03:42:48.694Z,4.88
2023-04-18T03:45:15.620Z,4.92
2023-04-18T03:47:41.915Z,4.99
2023-04-18T03:50:08.676Z,5.02
2023-04-18T03:52:35.067Z,5.05
2023-04-18T03:55:01.557Z,4.99
2023-04-18T03:57:27.931Z,4.86
2023-04-18T03:59:54.288Z,4.88
2023-04-18T04:02:20.918Z,4.87
2023-04-18T04:04:47.452Z,4.83
2023-04-18T04:07:13.886Z,4.89
2023-04-18T04:09:40.282Z,4.96
2023-04-18T04:12:06.732Z,5.00
2023-04-18T04:14:33.399Z,5.03
2023-04-18T04:16:59.981Z,5.01
2023-04-18T04:19:26.322Z,5.00
2023-04-18T04:21:52.708Z,5.01
2023-04-18T04:24:20.397Z,4.98
2023-04-18T04:26:48.690Z,4.91
2023-04-18T04:29:16.239Z,4.81
2023-04-18T04:31:42.732Z,4.82
2023-04-18T04:34:09.112Z,4.81
2023-04-18T04:36:35.601Z,4.78
2023-04-18T04:39:04.123Z,4.71
2023-04-18T04:41:31.515Z,4.73
2023-04-18T04:43:59.464Z,4.84
2023-04-18T04:46:29.302Z,4.85
2023-04-18T04:48:55.784Z,4.86
2023-04-18T04:51:22.175Z,4.91
2023-04-18T04:53:48.579Z,4.79
2023-04-18T04:56:15.017Z,4.83
2023-04-18T04:58:41.356Z,4.86
2023-04-18T05:01:08.950Z,4.93
2023-04-18T05:03:36.478Z,5.02
2023-04-18T05:06:03.033Z,5.19
2023-04-18T05:08:29.348Z,5.18
2023-04-18T05:10:55.695Z,5.25
2023-04-18T05:13:22.106Z,5.22
2023-04-18T05:15:48.511Z,5.16
2023-04-18T05:18:14.950Z,5.19
2023-04-18T05:20:41.269Z,5.37
2023-04-18T05:23:07.605Z,5.60
2023-04-18T05:25:33.993Z,5.60
2023-04-18T05:28:01.102Z,5.56
2023-04-18T05:30:27.523Z,5.66
2023-04-18T05:32:53.852Z,5.67
2023-04-18T05:35:20.347Z,5.76
2023-04-18T05:37:46.716Z,5.87
2023-04-18T05:40:13.907Z,5.97
2023-04-18T05:42:40.328Z,6.02
2023-04-18T05:45:07.340Z,6.09
2023-04-18T05:47:33.795Z,6.09
2023-04-18T05:50:00.296Z,6.09
2023-04-18T05:52:27.211Z,6.08
2023-04-18T05:54:53.533Z,6.11
2023-04-18T05:57:19.848Z,6.18
2023-04-18T05:59:46.165Z,6.22
2023-04-18T06:02:15.474Z,6.22
2023-04-18T06:04:42.985Z,6.27
2023-04-18T06:07:09.959Z,6.32
2023-04-18T06:09:36.483Z,6.32
2023-04-18T06:12:02.945Z,6.36
2023-04-18T06:14:29.416Z,6.40
2023-04-18T06:16:55.829Z,6.43
2023-04-18T06:19:22.192Z,6.58
2023-04-18T06:21:49.053Z,6.59
2023-04-18T06:24:15.857Z,6.65
2023-04-18T06:26:42.548Z,6.73
2023-04-18T06:29:08.845Z,6.83
2023-04-18T06:31:35.368Z,6.96
2023-04-18T06:34:01.751Z,7.07
2023-04-18T06:36:28.222Z,7.25
2023-04-18T06:38:54.705Z,7.24
2023-04-18T06:41:21.025Z,7.33
2023-04-18T06:44:02.073Z,7.33
2023-04-18T06:46:29.969Z,7.33
2023-04-18T06:48:56.516Z,7.31
2023-04-18T06:51:22.883Z,7.30
2023-04-18T06:53:52.551Z,7.27
2023-04-18T06:56:20.431Z,7.30
2023-04-18T06:58:47.474Z,7.31
2023-04-18T07:01:13.883Z,7.37
2023-04-18T07:06:31.199Z,7.39
2023-04-18T07:09:00.794Z,7.42
2023-04-18T07:11:28.210Z,7.55
2023-04-18T07:13:54.557Z,7.57
2023-04-18T07:16:21.185Z,7.62
2023-04-18T07:18:47.705Z,7.81
2023-04-18T07:21:14.083Z,7.73
2023-04-18T07:23:40.514Z,7.75
2023-04-18T07:26:07.069Z,7.86
2023-04-18T07:28:33.380Z,7.93
2023-04-18T07:31:01.280Z,7.92
2023-04-18T07:33:31.509Z,7.97
2023-04-18T07:35:57.989Z,7.99
2023-04-18T07:38:24.398Z,8.02
2023-04-18T07:41:01.258Z,8.05
2023-04-18T07:43:27.845Z,8.06
2023-04-18T07:45:54.309Z,8.07
2023-04-18T07:48:25.225Z,8.18
2023-04-18T07:50:51.554Z,8.20
2023-04-18T07:53:17.876Z,8.30
2023-04-18T07:55:45.229Z,8.30
2023-04-18T07:58:11.606Z,8.35
2023-04-18T08:00:42.679Z,8.41
2023-04-18T08:03:13.431Z,8.53
2023-04-18T08:05:41.228Z,8.49
2023-04-18T08:08:09.145Z,8.46
2023-04-18T08:10:36.192Z,8.49
2023-04-18T08:13:03.741Z,8.57
2023-04-18T08:15:32.274Z,8.59
2023-04-18T08:17:59.850Z,8.55
2023-04-18T08:20:26.519Z,8.72
2023-04-18T08:23:06.158Z,8.71
2023-04-18T08:25:36.105Z,8.72
2023-04-18T08:28:02.443Z,8.59
2023-04-18T08:30:28.861Z,8.71
2023-04-18T08:32:55.190Z,8.77
2023-04-18T08:35:21.587Z,8.77
2023-04-18T08:37:47.995Z,8.83
2023-04-18T08:40:14.439Z,8.86
2023-04-18T08:42:45.007Z,8.89
2023-04-18T08:45:14.080Z,9.03
2023-04-18T08:47:43.513Z,9.06
2023-04-18T08:50:10.565Z,9.09
2023-04-18T08:52:39.479Z,9.15
2023-04-18T08:55:06.468Z,9.25
2023-04-18T08:57:33.428Z,9.43
2023-04-18T09:00:01.512Z,9.58
2023-04-18T09:02:42.287Z,9.65
2023-04-18T09:05:13.705Z,9.70
2023-04-18T09:07:40.953Z,9.73
2023-04-18T09:10:07.826Z,9.79
2023-04-18T09:12:42.405Z,9.78
2023-04-18T09:15:10.080Z,9.78
2023-04-18T09:17:46.766Z,9.75
2023-04-18T09:20:15.541Z,9.84
2023-04-18T09:22:51.228Z,9.85
2023-04-18T09:25:38.415Z,9.94
2023-04-18T09:28:29.327Z,10.06
2023-04-18T09:30:57.506Z,10.14
2023-04-18T09:33:34.542Z,10.41
2023-04-18T09:36:17.885Z,10.67
2023-04-18T09:38:44.588Z,10.86
2023-04-18T09:41:12.754Z,11.23
2023-04-18T09:43:39.290Z,11.52
2023-04-18T09:46:07.530Z,11.43
2023-04-18T09:48:33.919Z,11.43
2023-04-18T09:51:06.029Z,11.55
2023-04-18T09:53:34.797Z,11.59
2023-04-18T09:56:03.032Z,11.73
2023-04-18T09:58:32.982Z,11.96
2023-04-18T10:00:59.357Z,11.83
2023-04-18T10:03:32.716Z,11.86
2023-04-18T10:05:59.232Z,12.02
2023-04-18T10:08:27.148Z,12.36
2023-04-18T10:10:55.809Z,12.65
2023-04-18T10:13:23.803Z,12.51
2023-04-18T10:15:52.328Z,12.62
2023-04-18T10:18:22.729Z,12.55
2023-04-18T10:20:49.160Z,12.75
2023-04-18T10:23:35.470Z,12.91
2023-04-18T10:26:03.547Z,12.82
2023-04-18T10:28:58.684Z,12.94
2023-04-18T10:31:27.330Z,12.84
2023-04-18T10:36:30.131Z,12.97
2023-04-18T10:39:02.758Z,12.95
2023-04-18T10:41:33.717Z,13.04
2023-04-18T10:44:08.456Z,13.11
2023-04-18T10:46:40.279Z,13.27
2023-04-18T10:49:15.180Z,12.91
2023-04-18T10:51:44.348Z,13.10
2023-04-18T10:54:25.578Z,12.98
2023-04-18T10:56:56.532Z,13.22
2023-04-18T10:59:24.988Z,13.49
2023-04-18T11:01:56.895Z,13.64
2023-04-18T11:04:24.283Z,13.39
2023-04-18T11:06:53.115Z,13.52
2023-04-18T11:09:19.648Z,13.70
2023-04-18T11:11:46.201Z,14.01
2023-04-18T11:14:12.901Z,14.44
2023-04-18T11:16:40.031Z,14.74
2023-04-18T11:19:21.298Z,14.80
2023-04-18T11:21:47.730Z,14.78
2023-04-18T11:24:21.898Z,15.24
2023-04-18T11:26:48.285Z,15.02
2023-04-18T11:29:17.840Z,14.98
2023-04-18T11:31:51.343Z,15.00
2023-04-18T11:34:17.746Z,15.07
2023-04-18T11:36:44.205Z,14.85
2023-04-18T11:39:10.530Z,14.68
2023-04-18T11:41:36.898Z,14.40
2023-04-18T11:44:05.993Z,14.21
2023-04-18T11:46:39.080Z,14.31
2023-04-18T11:49:05.444Z,14.48
2023-04-18T11:51:36.098Z,14.74
2023-04-18T11:54:02.581Z,14.81
2023-04-18T11:56:29.051Z,14.84
2023-04-18T11:58:56.134Z,15.00
2023-04-18T12:01:25.033Z,14.78
2023-04-18T12:04:05.353Z,14.73
2023-04-18T12:06:48.158Z,14.93
2023-04-18T12:09:15.668Z,14.79
2023-04-18T12:11:42.386Z,14.79
2023-04-18T12:14:21.779Z,14.94
2023-04-18T12:16:51.604Z,14.83
2023-04-18T12:19:20.392Z,14.89
2023-04-18T12:22:16.626Z,14.84
2023-04-18T12:24:43.223Z,14.92
2023-04-18T12:27:09.718Z,14.95
2023-04-18T12:29:36.047Z,14.86
2023-04-18T12:32:02.558Z,14.82
2023-04-18T12:34:29.005Z,14.71
2023-04-18T12:36:55.620Z,14.64
2023-04-18T12:39:21.997Z,14.57
2023-04-18T12:41:49.746Z,14.52
2023-04-18T12:44:16.746Z,14.47
2023-04-18T12:46:43.176Z,14.45
2023-04-18T12:49:09.574Z,14.47
2023-04-18T12:51:35.961Z,14.42
2023-04-18T12:54:02.310Z,14.50
2023-04-18T12:56:28.628Z,14.50
2023-04-18T12:58:54.954Z,14.50
2023-04-18T13:01:21.904Z,14.58
2023-04-18T13:03:53.680Z,14.62
2023-04-18T13:06:30.647Z,14.64
2023-04-18T13:08:57.037Z,14.72
2023-04-18T13:11:28.263Z,14.87
2023-04-18T13:13:54.807Z,14.86
2023-04-18T13:16:21.398Z,14.81
2023-04-18T13:18:47.773Z,14.79
2023-04-18T13:21:14.076Z,14.95
2023-04-18T13:23:41.055Z,14.99
2023-04-18T13:26:08.560Z,14.93
2023-04-18T13:28:34.888Z,14.96
2023-04-18T13:31:01.195Z,14.93
2023-04-18T13:33:27.519Z,15.22
2023-04-18T13:35:53.892Z,15.32
2023-04-18T13:38:22.995Z,15.35
2023-04-18T13:40:53.668Z,15.49
2023-04-18T13:43:24.480Z,15.50
2023-04-18T13:45:51.018Z,15.44
2023-04-18T13:48:17.493Z,15.43
2023-04-18T13:50:43.880Z,15.42
2023-04-18T13:53:10.316Z,15.35
2023-04-18T13:55:36.757Z,15.41
2023-04-18T13:58:03.115Z,15.39
2023-04-18T14:00:30.198Z,15.42
2023-04-18T14:02:57.523Z,15.51
2023-04-18T14:05:24.012Z,15.46
2023-04-18T14:07:50.471Z,15.53
2023-04-18T14:10:16.971Z,15.66
2023-04-18T14:12:43.339Z,15.59
2023-04-18T14:15:10.190Z,15.69
2023-04-18T14:17:36.643Z,15.55
2023-04-18T14:20:03.325Z,15.75
2023-04-18T14:22:29.728Z,15.78
2023-04-18T14:24:56.243Z,15.76
2023-04-18T14:27:22.906Z,15.84
2023-04-18T14:29:49.321Z,15.87
2023-04-18T14:32:15.821Z,15.85
2023-04-18T14:34:42.691Z,15.84
2023-04-18T14:37:09.510Z,15.58
2023-04-18T14:39:35.940Z,15.56
2023-04-18T14:42:02.387Z,15.43
2023-04-18T14:44:29.528Z,15.38
2023-04-18T14:46:56.006Z,15.56
2023-04-18T14:49:22.402Z,15.56
2023-04-18T14:51:48.729Z,15.36
2023-04-18T14:54:15.217Z,15.29
2023-04-18T14:56:41.557Z,15.25
2023-04-18T14:59:07.878Z,15.21
2023-04-18T15:01:34.350Z,15.03
2023-04-18T15:04:00.852Z,14.85
2023-04-18T15:06:28.281Z,14.82
2023-04-18T15:08:54.676Z,14.81
2023-04-18T15:11:21.305Z,14.80
2023-04-18T15:13:47.684Z,14.87
2023-04-18T15:16:14.111Z,14.83
2023-04-18T15:18:40.441Z,14.84
2023-04-18T15:21:06.882Z,14.86
2023-04-18T15:23:34.041Z,14.96
2023-04-18T15:26:00.510Z,15.01
2023-04-18T15:28:26.845Z,15.05
2023-04-18T15:30:53.199Z,14.96
2023-04-18T15:33:20.396Z,14.92
2023-04-18T15:35:49.589Z,14.88
2023-04-18T15:38:16.017Z,14.76
2023-04-18T15:40:43.369Z,14.92
2023-04-18T15:43:09.711Z,15.12
2023-04-18T15:45:36.032Z,15.34
2023-04-18T15:48:02.417Z,15.32
2023-04-18T15:50:29.877Z,15.63
2023-04-18T15:52:57.247Z,15.26
2023-04-18T15:55:23.641Z,15.18
2023-04-18T15:57:50.149Z,15.07
2023-04-18T16:00:17.248Z,14.94
2023-04-18T16:02:44.979Z,14.93
2023-04-18T16:05:15.146Z,14.98
2023-04-18T16:07:42.417Z,14.75
2023-04-18T16:10:10.178Z,14.72
2023-04-18T16:12:37.671Z,14.62
2023-04-18T16:15:08.038Z,14.62
2023-04-18T16:17:35.364Z,14.76
2023-04-18T16:20:01.788Z,14.71
2023-04-18T16:22:28.178Z,14.56
2023-04-18T16:24:54.680Z,14.49
2023-04-18T16:27:21.224Z,14.45
2023-04-18T16:29:47.696Z,14.45
2023-04-18T16:32:14.077Z,14.47
2023-04-18T16:34:40.475Z,14.36
2023-04-18T16:37:06.774Z,14.28
2023-04-18T16:39:33.393Z,14.14
2023-04-18T16:41:59.757Z,14.11
2023-04-18T16:44:26.299Z,14.18
2023-04-18T16:46:52.741Z,14.03
2023-04-18T16:49:20.372Z,14.01
2023-04-18T16:51:46.666Z,14.06
2023-04-18T16:54:14.359Z,13.95
2023-04-18T16:56:41.332Z,13.91
2023-04-18T16:59:09.283Z,13.88
2023-04-18T17:01:36.065Z,13.80
2023-04-18T17:04:02.528Z,13.72
2023-04-18T17:06:30.896Z,13.68
2023-04-18T17:08:58.791Z,13.75
2023-04-18T17:11:25.261Z,13.59
2023-04-18T17:13:51.758Z,13.67
2023-04-18T17:16:18.237Z,13.46
2023-04-18T17:18:44.616Z,13.46
2023-04-18T17:21:12.478Z,13.36
2023-04-18T17:23:41.559Z,13.36
2023-04-18T17:26:09.107Z,13.34
2023-04-18T17:28:36.186Z,13.21
2023-04-18T17:31:02.738Z,13.20
2023-04-18T17:33:29.076Z,13.16
2023-04-18T17:35:55.387Z,13.16
2023-04-18T17:38:21.802Z,13.17
2023-04-18T17:40:48.271Z,13.10
2023-04-18T17:43:14.583Z,13.11
2023-04-18T17:45:41.402Z,13.01
2023-04-18T17:48:07.853Z,12.91
2023-04-18T17:50:36.767Z,12.96
2023-04-18T17:53:03.641Z,12.88
2023-04-18T17:55:30.117Z,12.80
2023-04-18T17:57:57.352Z,12.88
2023-04-18T18:00:23.832Z,12.80
2023-04-18T18:02:50.373Z,12.74
2023-04-18T18:05:16.978Z,12.66
2023-04-18T18:07:47.235Z,12.63
2023-04-18T18:10:23.118Z,12.56
2023-04-18T18:12:49.836Z,12.52
2023-04-18T18:15:16.220Z,12.43
2023-04-18T18:17:42.747Z,12.40
2023-04-18T18:20:12.429Z,12.43
2023-04-18T18:22:38.789Z,12.32
2023-04-18T18:25:05.493Z,12.29
2023-04-18T18:27:31.931Z,12.32
2023-04-18T18:29:58.276Z,12.27
2023-04-18T18:32:24.669Z,12.26
2023-04-18T18:34:51.082Z,12.16
2023-04-18T18:37:17.426Z,12.18
2023-04-18T18:39:43.779Z,12.16
2023-04-18T18:42:10.137Z,12.09
2023-04-18T18:44:36.593Z,12.05
2023-04-18T18:47:02.921Z,12.00
2023-04-18T18:49:29.257Z,12.01
2023-04-18T18:51:56.784Z,11.97
2023-04-18T18:54:23.445Z,11.93
2023-04-18T18:56:49.920Z,11.92
2023-04-18T18:59:16.497Z,11.88
2023-04-18T19:01:43.021Z,11.89
2023-04-18T19:04:09.653Z,11.80
2023-04-18T19:06:36.257Z,11.75
2023-04-18T19:09:02.736Z,11.74
2023-04-18T19:11:29.646Z,11.75
2023-04-18T19:13:55.983Z,11.73
2023-04-18T19:16:22.404Z,11.74
2023-04-18T19:18:50.392Z,11.68
2023-04-18T19:21:17.353Z,11.70
2023-04-18T19:23:43.843Z,11.69
2023-04-18T19:26:10.189Z,11.65
2023-04-18T19:28:36.540Z,11.59
2023-04-18T19:31:03.024Z,11.62
2023-04-18T19:33:30.372Z,11.55
2023-04-18T19:35:56.901Z,11.59
2023-04-18T19:38:23.273Z,11.54
2023-04-18T19:40:52.181Z,11.47
2023-04-18T19:43:18.520Z,11.49
2023-04-18T19:45:45.079Z,11.49
2023-04-18T19:48:11.869Z,11.47
2023-04-18T19:50:42.122Z,11.45
2023-04-18T19:53:08.882Z,11.46
2023-04-18T19:55:35.365Z,11.42
2023-04-18T19:58:01.885Z,11.43
2023-04-18T20:00:28.454Z,11.44
2023-04-18T20:02:55.045Z,11.42
2023-04-18T20:05:21.608Z,11.45
2023-04-18T20:07:48.256Z,11.39
2023-04-18T20:10:14.669Z,11.41
2023-04-18T20:12:41.080Z,11.40
2023-04-18T20:15:08.200Z,11.39
2023-04-18T20:17:34.740Z,11.42
2023-04-18T20:20:01.407Z,11.38
2023-04-18T20:22:27.833Z,11.33
2023-04-18T20:24:57.039Z,11.36
2023-04-18T20:27:23.513Z,11.36
2023-04-18T20:29:50.043Z,11.35
2023-04-18T20:32:16.518Z,11.36
2023-04-18T20:34:43.279Z,11.35
2023-04-18T20:37:09.978Z,11.29
2023-04-18T20:39:37.904Z,11.31
2023-04-18T20:42:04.685Z,11.28
2023-04-18T20:44:33.320Z,11.28
2023-04-18T20:46:59.702Z,11.28
2023-04-18T20:49:26.148Z,11.23
2023-04-18T20:51:52.595Z,11.21
2023-04-18T20:54:18.958Z,11.18
2023-04-18T20:56:45.376Z,11.22
2023-04-18T20:59:11.728Z,11.19
2023-04-18T21:01:38.083Z,11.18
2023-04-18T21:04:05.154Z,11.16
2023-04-18T21:06:32.705Z,11.15
2023-04-18T21:08:59.035Z,11.15
2023-04-18T21:11:25.378Z,11.17
2023-04-18T21:13:51.682Z,11.14
2023-04-18T21:16:18.201Z,11.11
2023-04-18T21:18:44.596Z,11.10
2023-04-18T21:21:11.688Z,11.06
2023-04-18T21:23:44.195Z,11.10
2023-04-18T21:26:12.906Z,11.09
2023-04-18T21:28:59.296Z,11.07
2023-04-18T21:31:26.659Z,11.09
2023-04-18T21:33:57.301Z,11.20
2023-04-18T21:36:26.845Z,11.08
2023-04-18T21:38:54.523Z,11.06
2023-04-18T21:41:21.320Z,11.06
2023-04-18T21:43:47.873Z,11.01
2023-04-18T21:46:14.912Z,10.99
2023-04-18T21:48:42.774Z,10.96
2023-04-18T21:51:10.451Z,10.97
2023-04-18T21:53:38.458Z,11.00
2023-04-18T21:56:05.597Z,10.97
2023-04-18T21:58:32.248Z,10.97
2023-04-18T22:00:58.915Z,11.01
2023-04-18T22:03:26.675Z,11.01
2023-04-18T22:05:53.244Z,10.93
2023-04-18T22:08:20.190Z,10.95
2023-04-18T22:10:49.625Z,10.94
2023-04-18T22:13:16.554Z,10.88
2023-04-18T22:15:42.923Z,10.86
2023-04-18T22:18:09.316Z,10.88
2023-04-18T22:20:38.851Z,10.78
2023-04-18T22:23:06.874Z,10.79
2023-04-18T22:25:33.777Z,10.78
2023-04-18T22:28:01.606Z,10.77
2023-04-18T22:30:28.379Z,10.74
2023-04-18T22:32:54.779Z,10.73
2023-04-18T22:35:21.780Z,10.69
2023-04-18T22:37:48.132Z,10.65
2023-04-18T22:40:15.539Z,10.64
2023-04-18T22:42:42.098Z,10.59
2023-04-18T22:45:08.978Z,10.64
2023-04-18T22:47:35.374Z,10.56
2023-04-18T22:50:01.870Z,10.56
2023-04-18T22:52:29.186Z,10.54
2023-04-18T22:54:55.686Z,10.47
2023-04-18T22:57:22.059Z,10.38
2023-04-18T22:59:48.359Z,10.45
2023-04-18T23:02:14.888Z,10.45
2023-04-18T23:04:42.288Z,10.35
2023-04-18T23:07:09.029Z,10.34
2023-04-18T23:09:35.304Z,10.27
2023-04-18T23:12:02.320Z,10.26
2023-04-18T23:14:29.388Z,10.22
2023-04-18T23:16:55.765Z,10.22
2023-04-18T23:19:22.154Z,10.25
2023-04-18T23:21:49.721Z,10.18
2023-04-18T23:24:16.420Z,10.20
2023-04-18T23:26:42.907Z,10.14
2023-04-18T23:29:09.268Z,10.15
2023-04-18T23:31:35.724Z,10.08
2023-04-18T23:34:02.142Z,10.05
2023-04-18T23:36:28.512Z,9.99
2023-04-18T23:38:54.880Z,10.03
2023-04-18T23:41:21.218Z,10.08
2023-04-18T23:43:47.586Z,10.06
2023-04-18T23:46:14.067Z,10.06
2023-04-18T23:48:40.513Z,10.08
2023-04-18T23:51:06.943Z,10.08
2023-04-18T23:53:33.307Z,10.10
2023-04-18T23:55:59.621Z,10.14
2023-04-18T23:58:26.526Z,10.08
